createdAt,value
2019-06-26T00:00:30.791Z,57.39
2019-06-26T00:02:59.227Z,56.92
2019-06-26T00:05:27.741Z,57.35
2019-06-26T00:07:57.669Z,57.22
2019-06-26T00:10:26.290Z,57.37
2019-06-26T00:12:54.811Z,57.22
2019-06-26T00:15:23.282Z,57.50
2019-06-26T00:17:52.546Z,57.53
2019-06-26T00:20:22.118Z,57.84
2019-06-26T00:22:50.624Z,57.33
2019-06-26T00:25:19.111Z,57.94
2019-06-26T00:27:47.714Z,57.80
2019-06-26T00:30:16.494Z,58.09
2019-06-26T00:32:44.979Z,58.12
2019-06-26T00:35:13.629Z,58.59
2019-06-26T00:37:43.722Z,58.53
2019-06-26T00:40:17.443Z,58.64
2019-06-26T00:42:47.527Z,59.13
2019-06-26T00:45:16.599Z,58.97
2019-06-26T00:47:46.977Z,59.43
2019-06-26T00:50:15.737Z,59.34
2019-06-26T00:52:47.110Z,59.40
2019-06-26T00:55:17.816Z,59.92
2019-06-26T00:57:46.318Z,59.69
2019-06-26T01:00:15.846Z,59.79
2019-06-26T01:02:44.367Z,60.36
2019-06-26T01:05:13.830Z,60.92
2019-06-26T01:07:42.333Z,60.76
2019-06-26T01:10:12.354Z,60.46
2019-06-26T01:12:40.855Z,60.68
2019-06-26T01:15:11.973Z,61.07
2019-06-26T01:17:40.479Z,61.75
2019-06-26T01:20:09.393Z,61.40
2019-06-26T01:22:41.408Z,61.39
2019-06-26T01:25:10.050Z,61.99
2019-06-26T01:27:38.664Z,61.52
2019-06-26T01:30:08.046Z,62.06
2019-06-26T01:32:36.574Z,61.65
2019-06-26T01:35:12.825Z,61.88
2019-06-26T01:37:41.382Z,62.48
2019-06-26T01:40:10.234Z,62.60
2019-06-26T01:42:38.680Z,62.60
2019-06-26T01:45:10.037Z,62.60
2019-06-26T01:47:38.577Z,63.08
2019-06-26T01:50:07.804Z,63.09
2019-06-26T01:52:38.568Z,63.44
2019-06-26T01:55:10.010Z,63.02
2019-06-26T01:57:38.563Z,63.23
2019-06-26T02:00:11.778Z,63.44
2019-06-26T02:02:40.282Z,63.91
2019-06-26T02:05:09.198Z,64.03
2019-06-26T02:07:37.868Z,64.44
2019-06-26T02:10:15.600Z,64.61
2019-06-26T02:12:44.206Z,64.58
2019-06-26T02:15:13.229Z,63.96
2019-06-26T02:17:43.399Z,64.64
2019-06-26T02:20:12.339Z,64.48
2019-06-26T02:22:41.701Z,65.01
2019-06-26T02:25:10.390Z,64.94
2019-06-26T02:27:42.187Z,65.11
2019-06-26T02:30:14.367Z,64.53
2019-06-26T02:32:42.919Z,65.02
2019-06-26T02:35:11.674Z,64.90
2019-06-26T02:37:40.286Z,65.39
2019-06-26T02:40:12.429Z,65.68
2019-06-26T02:42:41.182Z,65.41
2019-06-26T02:45:12.311Z,66.13
2019-06-26T02:47:41.952Z,66.51
2019-06-26T02:50:11.428Z,66.80
2019-06-26T02:52:39.941Z,67.25
2019-06-26T02:55:08.565Z,67.79
2019-06-26T02:57:37.143Z,67.99
2019-06-26T03:00:08.819Z,67.36
2019-06-26T03:02:37.412Z,67.91
2019-06-26T03:05:09.022Z,67.88
2019-06-26T03:07:37.281Z,68.10
2019-06-26T03:10:07.965Z,67.76
2019-06-26T03:12:36.489Z,67.85
2019-06-26T03:15:09.967Z,68.22
2019-06-26T03:17:54.162Z,67.87
2019-06-26T03:20:47.321Z,68.67
2019-06-26T03:23:38.762Z,68.73
2019-06-26T04:04:46.162Z,69.72
2019-06-26T04:13:55.068Z,70.13
2019-06-26T04:22:21.373Z,70.36
2019-06-26T04:24:49.908Z,70.46
2019-06-26T04:27:18.555Z,70.28
2019-06-26T04:29:48.337Z,70.52
2019-06-26T04:32:16.872Z,70.45
2019-06-26T04:34:45.493Z,70.34
2019-06-26T04:37:15.627Z,70.55
2019-06-26T04:39:45.787Z,70.59
2019-06-26T04:42:14.387Z,70.05
2019-06-26T04:45:02.333Z,70.29
2019-06-26T04:47:32.680Z,69.75
2019-06-26T04:50:01.185Z,69.95
2019-06-26T04:52:29.744Z,70.60
2019-06-26T04:54:58.288Z,70.11
2019-06-26T04:57:27.368Z,69.92
2019-06-26T04:59:55.907Z,69.89
2019-06-26T05:02:24.442Z,70.22
2019-06-26T05:05:00.813Z,70.34
2019-06-26T05:07:29.309Z,70.09
2019-06-26T05:10:08.938Z,70.06
2019-06-26T05:12:34.994Z,69.96
2019-06-26T05:15:05.330Z,70.00
2019-06-26T05:17:33.937Z,69.75
2019-06-26T05:20:54.640Z,69.62
2019-06-26T05:23:02.431Z,70.03
2019-06-26T05:25:31.123Z,70.05
2019-06-26T05:27:59.739Z,70.20
2019-06-26T05:30:30.490Z,69.76
2019-06-26T05:32:59.450Z,69.57
2019-06-26T05:35:28.101Z,69.53
2019-06-26T05:37:57.223Z,70.30
2019-06-26T05:40:25.802Z,70.12
2019-06-26T05:42:54.435Z,70.25
2019-06-26T05:45:23.451Z,69.62
2019-06-26T05:47:52.095Z,69.49
2019-06-26T05:50:22.869Z,69.31
2019-06-26T05:52:53.203Z,69.33
2019-06-26T05:55:23.618Z,69.42
2019-06-26T05:57:55.087Z,69.77
2019-06-26T06:00:24.469Z,69.94
2019-06-26T06:02:54.095Z,69.29
2019-06-26T06:05:42.269Z,69.66
2019-06-26T06:08:11.127Z,68.91
2019-06-26T06:10:46.724Z,68.78
2019-06-26T06:13:15.334Z,69.43
2019-06-26T06:16:00.748Z,68.81
2019-06-26T06:18:30.440Z,68.59
2019-06-26T06:23:51.079Z,67.58
2019-06-26T06:26:19.621Z,66.40
2019-06-26T06:28:48.312Z,66.91
2019-06-26T06:31:21.142Z,67.46
2019-06-26T06:33:56.765Z,66.87
2019-06-26T06:36:25.445Z,67.36
2019-06-26T06:38:55.683Z,67.66
2019-06-26T06:41:24.191Z,67.97
2019-06-26T06:43:53.351Z,67.25
2019-06-26T06:46:21.861Z,67.73
2019-06-26T06:48:50.430Z,66.24
2019-06-26T06:51:19.922Z,65.88
2019-06-26T06:53:48.420Z,66.72
2019-06-26T06:56:17.590Z,66.77
2019-06-26T06:58:46.101Z,65.59
2019-06-26T07:01:14.594Z,65.16
2019-06-26T07:03:43.097Z,64.21
2019-06-26T07:06:11.616Z,65.70
2019-06-26T07:08:44.542Z,65.48
2019-06-26T07:11:12.940Z,66.30
2019-06-26T07:13:42.438Z,64.71
2019-06-26T07:16:10.918Z,64.74
2019-06-26T07:18:39.440Z,63.42
2019-06-26T07:21:08.034Z,63.55
2019-06-26T07:23:36.559Z,64.74
2019-06-26T07:26:05.032Z,64.45
2019-06-26T07:28:33.646Z,63.32
2019-06-26T07:31:02.194Z,62.93
2019-06-26T07:33:30.788Z,61.72
2019-06-26T07:35:59.499Z,62.01
2019-06-26T07:38:27.968Z,62.78
2019-06-26T07:40:56.432Z,61.60
2019-06-26T07:43:24.902Z,62.70
2019-06-26T07:45:53.373Z,59.90
2019-06-26T07:48:21.914Z,60.45
2019-06-26T07:50:50.462Z,60.76
2019-06-26T07:53:19.054Z,62.46
2019-06-26T07:55:47.528Z,61.31
2019-06-26T07:58:16.138Z,60.30
2019-06-26T08:00:44.584Z,62.20
2019-06-26T08:03:13.140Z,58.64
2019-06-26T08:05:43.079Z,60.53
2019-06-26T08:08:14.581Z,59.04
2019-06-26T08:10:42.548Z,59.89
2019-06-26T08:13:11.069Z,60.20
2019-06-26T08:15:39.489Z,60.05
2019-06-26T08:18:08.009Z,57.32
2019-06-26T08:20:51.594Z,57.36
2019-06-26T08:23:06.598Z,55.79
2019-06-26T08:25:35.034Z,55.14
2019-06-26T08:28:04.418Z,54.88
2019-06-26T08:30:32.918Z,54.14
2019-06-26T08:33:01.407Z,54.82
2019-06-26T08:35:29.868Z,54.05
2019-06-26T08:38:09.414Z,52.44
2019-06-26T08:40:28.685Z,52.15
2019-06-26T08:42:57.221Z,52.61
2019-06-26T08:45:25.666Z,49.57
2019-06-26T08:47:55.624Z,49.67
2019-06-26T08:50:24.358Z,48.19
2019-06-26T08:52:54.582Z,50.24
2019-06-26T08:55:23.067Z,47.12
2019-06-26T08:57:51.541Z,46.05
2019-06-26T09:00:20.355Z,47.26
2019-06-26T09:02:48.817Z,47.63
2019-06-26T09:05:17.522Z,46.35
2019-06-26T09:07:45.978Z,45.33
2019-06-26T09:10:14.912Z,43.06
2019-06-26T09:12:43.347Z,44.07
2019-06-26T09:15:12.136Z,43.78
2019-06-26T09:17:40.619Z,43.79
2019-06-26T09:20:11.887Z,42.69
2019-06-26T09:22:40.383Z,42.26
2019-06-26T09:25:20.813Z,41.97
2019-06-26T09:27:39.340Z,43.08
2019-06-26T09:30:08.948Z,42.86
2019-06-26T09:32:37.394Z,41.72
2019-06-26T09:35:07.906Z,43.23
2019-06-26T09:37:36.443Z,41.11
2019-06-26T09:40:06.642Z,40.54
2019-06-26T09:42:35.078Z,41.61
2019-06-26T09:45:04.587Z,40.34
2019-06-26T09:47:33.034Z,40.53
2019-06-26T09:50:01.939Z,40.44
2019-06-26T09:52:30.578Z,41.18
2019-06-26T09:55:00.627Z,41.04
2019-06-26T09:57:29.176Z,40.57
2019-06-26T09:59:58.830Z,40.27
2019-06-26T10:02:27.262Z,39.53
2019-06-26T10:04:55.731Z,39.35
2019-06-26T10:07:24.164Z,40.32
2019-06-26T10:09:52.713Z,40.60
2019-06-26T10:12:21.248Z,39.85
2019-06-26T10:14:52.713Z,40.22
2019-06-26T10:17:21.190Z,40.41
2019-06-26T10:19:49.651Z,40.99
2019-06-26T10:22:19.225Z,41.20
2019-06-26T10:24:47.715Z,39.42
2019-06-26T10:27:16.169Z,38.69
2019-06-26T10:29:44.615Z,38.47
2019-06-26T10:32:13.171Z,38.71
2019-06-26T10:34:42.022Z,38.84
2019-06-26T10:37:10.494Z,39.47
2019-06-26T10:39:38.982Z,39.71
2019-06-26T10:42:07.430Z,39.97
2019-06-26T10:44:35.874Z,40.76
2019-06-26T10:47:04.415Z,40.67
2019-06-26T10:49:32.920Z,41.05
2019-06-26T10:52:04.334Z,41.19
2019-06-26T10:54:35.450Z,41.21
2019-06-26T10:57:05.465Z,41.39
2019-06-26T10:59:35.287Z,39.85
2019-06-26T11:02:18.791Z,39.62
2019-06-26T11:04:57.278Z,40.04
2019-06-26T11:07:31.455Z,38.40
2019-06-26T11:10:01.686Z,38.92
2019-06-26T11:12:33.577Z,37.20
2019-06-26T11:15:07.639Z,37.89
2019-06-26T11:17:39.530Z,38.58
2019-06-26T11:20:36.533Z,39.92
2019-06-26T11:23:15.982Z,40.28
2019-06-26T11:25:47.397Z,40.80
2019-06-26T11:28:24.567Z,41.02
2019-06-26T11:30:55.526Z,41.00
2019-06-26T11:33:37.462Z,41.62
2019-06-26T11:36:07.947Z,41.79
2019-06-26T11:38:38.963Z,41.19
2019-06-26T11:41:10.465Z,41.28
2019-06-26T11:43:48.811Z,39.99
2019-06-26T11:46:33.528Z,39.64
2019-06-26T11:49:08.144Z,40.44
2019-06-26T11:51:32.360Z,40.43
2019-06-26T11:54:01.028Z,41.25
2019-06-26T11:56:44.114Z,40.72
2019-06-26T11:59:14.213Z,41.84
2019-06-26T12:01:43.113Z,42.21
2019-06-26T12:07:07.022Z,38.62
2019-06-26T12:09:45.250Z,40.66
2019-06-26T12:12:37.096Z,41.61
2019-06-26T12:15:14.405Z,41.36
2019-06-26T12:18:01.471Z,40.30
2019-06-26T12:20:32.849Z,38.06
2019-06-26T12:23:04.356Z,37.41
2019-06-26T12:28:31.883Z,36.56
2019-06-26T12:31:07.541Z,36.93
2019-06-26T12:33:38.121Z,36.14
2019-06-26T12:36:11.269Z,37.35
2019-06-26T12:38:59.529Z,37.25
2019-06-26T12:41:36.359Z,38.30
2019-06-26T12:44:10.820Z,39.08
2019-06-26T12:47:00.070Z,39.13
2019-06-26T12:50:04.010Z,39.46
2019-06-26T12:52:48.540Z,40.16
2019-06-26T12:55:27.496Z,39.87
2019-06-26T12:58:19.716Z,39.41
2019-06-26T13:00:37.812Z,38.09
2019-06-26T13:03:09.229Z,36.53
2019-06-26T13:05:39.399Z,36.25
2019-06-26T13:08:13.084Z,36.48
2019-06-26T13:10:49.409Z,35.58
2019-06-26T13:13:16.044Z,36.29
2019-06-26T13:15:52.847Z,35.61
2019-06-26T13:18:23.563Z,34.41
2019-06-26T13:20:53.702Z,35.10
2019-06-26T13:23:29.432Z,35.73
2019-06-26T13:26:09.658Z,34.00
2019-06-26T13:28:42.821Z,34.15
2019-06-26T13:31:11.344Z,36.20
2019-06-26T13:33:44.271Z,35.43
2019-06-26T13:36:18.517Z,37.13
2019-06-26T13:38:47.030Z,38.40
2019-06-26T13:41:15.576Z,38.72
2019-06-26T13:43:50.800Z,38.53
2019-06-26T13:46:24.333Z,36.43
2019-06-26T13:49:03.203Z,36.90
2019-06-26T13:51:35.489Z,36.78
2019-06-26T13:54:05.792Z,37.29
2019-06-26T13:56:55.287Z,36.63
2019-06-26T13:59:23.847Z,37.93
2019-06-26T14:02:13.404Z,38.47
2019-06-26T14:08:06.479Z,40.48
2019-06-26T14:14:56.126Z,42.01
2019-06-26T14:17:34.347Z,42.54
2019-06-26T14:19:54.793Z,42.49
2019-06-26T14:22:52.651Z,43.14
2019-06-26T14:31:22.062Z,43.46
2019-06-26T14:34:42.707Z,43.96
2019-06-26T14:37:14.768Z,43.19
2019-06-26T14:39:49.340Z,43.91
2019-06-26T14:42:25.736Z,44.35
2019-06-26T14:45:00.299Z,43.29
2019-06-26T14:50:39.523Z,44.47
2019-06-26T14:53:22.570Z,44.00
2019-06-26T14:55:53.320Z,43.70
2019-06-26T14:58:36.536Z,43.63
2019-06-26T15:07:30.798Z,45.47
2019-06-26T15:10:23.091Z,46.68
2019-06-26T15:12:59.712Z,46.97
2019-06-26T15:15:49.800Z,47.27
2019-06-26T15:18:24.250Z,47.23
2019-06-26T15:26:44.302Z,47.08
2019-06-26T15:32:52.287Z,47.60
2019-06-26T15:39:03.393Z,46.88
2019-06-26T15:44:27.496Z,45.98
2019-06-26T15:47:00.755Z,45.67
2019-06-26T15:52:43.874Z,44.98
2019-06-26T15:55:20.874Z,44.62
2019-06-26T15:57:55.432Z,45.29
2019-06-26T16:00:36.398Z,45.30
2019-06-26T16:03:29.475Z,45.03
2019-06-26T16:06:08.465Z,45.18
2019-06-26T16:11:53.981Z,45.70
2019-06-26T16:15:11.079Z,45.92
2019-06-26T16:20:06.444Z,46.34
2019-06-26T16:25:24.627Z,47.13
2019-06-26T16:28:05.135Z,47.35
2019-06-26T16:30:34.586Z,46.94
2019-06-26T16:33:13.876Z,48.56
2019-06-26T16:35:46.215Z,47.77
2019-06-26T16:44:33.699Z,49.37
2019-06-26T16:46:59.220Z,49.35
2019-06-26T16:49:30.937Z,50.34
2019-06-26T16:52:06.064Z,50.19
2019-06-26T16:54:47.254Z,50.56
2019-06-26T16:58:30.655Z,50.81
2019-06-26T17:03:04.002Z,50.49
2019-06-26T17:22:40.253Z,51.35
2019-06-26T17:25:09.649Z,50.88
2019-06-26T17:27:38.119Z,51.52
2019-06-26T17:30:07.988Z,52.04
2019-06-26T17:32:36.421Z,52.33
2019-06-26T17:35:07.631Z,52.06
2019-06-26T17:37:38.947Z,52.15
2019-06-26T17:40:08.537Z,52.61
2019-06-26T17:42:36.988Z,52.31
2019-06-26T17:45:09.808Z,52.29
2019-06-26T17:47:38.344Z,52.64
2019-06-26T17:50:07.605Z,52.22
2019-06-26T17:52:38.502Z,53.15
2019-06-26T17:55:10.179Z,52.92
2019-06-26T17:57:38.722Z,52.73
2019-06-26T18:00:08.550Z,52.84
2019-06-26T18:02:37.010Z,52.80
2019-06-26T18:05:06.084Z,52.19
2019-06-26T18:07:34.587Z,52.56
2019-06-26T18:10:03.758Z,52.16
2019-06-26T18:12:35.229Z,52.51
2019-06-26T18:15:07.614Z,53.06
2019-06-26T18:17:36.099Z,53.13
2019-06-26T18:20:06.499Z,53.05
2019-06-26T18:22:35.158Z,52.74
2019-06-26T18:25:04.372Z,52.66
2019-06-26T18:27:32.894Z,52.70
2019-06-26T18:30:04.293Z,53.89
2019-06-26T18:32:32.781Z,53.60
2019-06-26T18:35:01.221Z,53.59
2019-06-26T18:37:29.681Z,53.64
2019-06-26T18:39:58.141Z,54.22
2019-06-26T18:42:26.700Z,53.94
2019-06-26T18:44:55.172Z,54.26
2019-06-26T18:47:23.615Z,54.48
2019-06-26T18:49:52.095Z,54.29
2019-06-26T18:52:20.556Z,53.11
2019-06-26T18:54:49.111Z,52.78
2019-06-26T18:57:18.932Z,52.79
2019-06-26T18:59:49.377Z,52.96
2019-06-26T19:02:19.486Z,53.00
2019-06-26T19:04:49.622Z,53.13
2019-06-26T19:07:19.146Z,53.81
2019-06-26T19:09:49.249Z,54.21
2019-06-26T19:12:20.557Z,54.38
2019-06-26T19:14:50.598Z,54.67
2019-06-26T19:17:19.082Z,54.72
2019-06-26T19:19:49.032Z,55.35
2019-06-26T19:22:17.593Z,55.50
2019-06-26T19:24:47.744Z,55.97
2019-06-26T19:27:20.489Z,56.35
2019-06-26T19:29:49.066Z,56.53
2019-06-26T19:32:17.682Z,56.93
2019-06-26T19:34:46.248Z,57.21
2019-06-26T19:37:14.875Z,57.25
2019-06-26T19:39:43.403Z,57.23
2019-06-26T19:42:11.953Z,57.76
2019-06-26T19:44:40.582Z,58.77
2019-06-26T19:47:09.190Z,59.91
2019-06-26T19:49:41.306Z,61.27
2019-06-26T19:52:09.756Z,61.38
2019-06-26T19:54:38.440Z,61.89
2019-06-26T19:57:06.955Z,62.26
2019-06-26T19:59:35.461Z,63.29
2019-06-26T20:02:06.197Z,63.06
2019-06-26T20:04:34.578Z,63.33
2019-06-26T20:07:03.108Z,63.26
2019-06-26T20:09:44.910Z,63.30
2019-06-26T20:12:23.081Z,63.02
2019-06-26T20:14:58.587Z,62.26
2019-06-26T20:18:18.199Z,61.92
2019-06-26T20:20:09.901Z,61.15
2019-06-26T20:22:56.180Z,61.10
2019-06-26T20:25:45.075Z,61.01
2019-06-26T20:28:21.947Z,61.82
2019-06-26T20:31:14.864Z,62.48
2019-06-26T20:36:44.018Z,65.59
2019-06-26T20:39:12.632Z,67.36
2019-06-26T20:41:41.302Z,67.96
2019-06-26T20:44:11.611Z,68.04
2019-06-26T20:46:43.004Z,68.74
2019-06-26T20:49:11.530Z,69.68
2019-06-26T20:51:43.065Z,69.54
2019-06-26T20:54:11.591Z,69.62
2019-06-26T20:56:45.172Z,69.49
2019-06-26T20:59:13.694Z,68.93
2019-06-26T21:01:42.242Z,69.14
2019-06-26T21:04:27.940Z,69.69
2019-06-26T21:06:56.385Z,68.85
2019-06-26T21:09:37.059Z,69.28
2019-06-26T21:12:19.153Z,69.16
2019-06-26T21:14:46.697Z,68.94
2019-06-26T21:17:15.155Z,69.17
2019-06-26T21:19:43.625Z,69.62
2019-06-26T21:22:12.082Z,69.51
2019-06-26T21:24:40.584Z,69.69
2019-06-26T21:27:09.021Z,70.66
2019-06-26T21:29:37.605Z,70.41
2019-06-26T21:32:07.619Z,71.20
2019-06-26T21:34:37.190Z,71.08
2019-06-26T21:37:05.736Z,71.04
2019-06-26T21:39:34.256Z,71.31
2019-06-26T21:42:02.806Z,70.80
2019-06-26T21:44:31.351Z,71.24
2019-06-26T21:47:02.492Z,71.39
2019-06-26T21:49:30.990Z,71.62
2019-06-26T21:51:59.419Z,71.90
2019-06-26T21:54:27.905Z,72.17
2019-06-26T21:56:56.417Z,71.95
2019-06-26T21:59:24.867Z,72.12
2019-06-26T22:01:53.539Z,72.24
2019-06-26T22:04:22.154Z,71.93
2019-06-26T22:06:50.740Z,72.50
2019-06-26T22:09:19.261Z,73.22
2019-06-26T22:11:47.825Z,73.12
2019-06-26T22:14:16.373Z,72.91
2019-06-26T22:16:44.895Z,72.77
2019-06-26T22:19:13.391Z,73.09
2019-06-26T22:21:41.914Z,72.65
2019-06-26T22:24:10.504Z,72.51
2019-06-26T22:26:38.911Z,72.96
2019-06-26T22:29:07.454Z,73.44
2019-06-26T22:31:35.943Z,73.33
2019-06-26T22:34:04.540Z,74.31
2019-06-26T22:36:33.000Z,73.91
2019-06-26T22:39:01.489Z,73.83
2019-06-26T22:41:29.937Z,73.43
2019-06-26T22:43:58.406Z,73.36
2019-06-26T22:46:26.915Z,73.92
2019-06-26T22:48:57.010Z,74.23
2019-06-26T22:51:25.470Z,74.81
2019-06-26T22:53:56.819Z,74.16
2019-06-26T22:56:25.775Z,74.55
2019-06-26T22:58:54.246Z,75.07
2019-06-26T23:01:22.752Z,75.04
2019-06-26T23:03:51.283Z,74.66
2019-06-26T23:06:19.806Z,74.78
2019-06-26T23:08:48.289Z,75.35
2019-06-26T23:11:16.788Z,75.23
2019-06-26T23:13:45.287Z,75.51
2019-06-26T23:16:13.754Z,75.52
2019-06-26T23:18:42.239Z,75.39
2019-06-26T23:21:10.683Z,75.70
2019-06-26T23:23:39.139Z,75.69
2019-06-26T23:26:22.937Z,76.25
2019-06-26T23:28:37.933Z,76.39
2019-06-26T23:31:06.474Z,75.75
2019-06-26T23:33:34.947Z,76.12
2019-06-26T23:36:03.402Z,75.82
2019-06-26T23:38:31.885Z,75.34
2019-06-26T23:41:00.364Z,75.78
2019-06-26T23:43:28.808Z,75.87
2019-06-26T23:45:57.333Z,75.70
2019-06-26T23:48:25.812Z,75.26
2019-06-26T23:50:54.345Z,74.73
2019-06-26T23:53:22.833Z,74.64
2019-06-26T23:56:06.572Z,74.33
2019-06-26T23:58:34.996Z,74.42
